sensor_id;sensor_type;location;lat;lon;timestamp;P1;durP1;ratioP1;P2;durP2;ratioP2
64353;SDS011;50681;53.334;-6.536;2022-08-19T00:00:07;26.23;;;3.93;;
64353;SDS011;50681;53.334;-6.536;2022-08-19T00:02:35;26.95;;;3.97;;
64353;SDS011;50681;53.334;-6.536;2022-08-19T00:05:01;25.55;;;3.60;;
64353;SDS011;50681;53.334;-6.536;2022-08-19T00:07:27;20.83;;;3.60;;
64353;SDS011;50681;53.334;-6.536;2022-08-19T00:09:52;31.07;;;4.37;;
64353;SDS011;50681;53.334;-6.536;2022-08-19T00:12:18;26.08;;;4.85;;
64353;SDS011;50681;53.334;-6.536;2022-08-19T00:14:44;25.27;;;4.22;;
64353;SDS011;50681;53.334;-6.536;2022-08-19T00:17:09;35.70;;;4.47;;
64353;SDS011;50681;53.334;-6.536;2022-08-19T00:19:35;25.27;;;3.67;;
64353;SDS011;50681;53.334;-6.536;2022-08-19T00:24:28;18.02;;;3.45;;
64353;SDS011;50681;53.334;-6.536;2022-08-19T00:26:54;23.15;;;4.55;;
64353;SDS011;50681;53.334;-6.536;2022-08-19T00:29:21;18.00;;;3.58;;
64353;SDS011;50681;53.334;-6.536;2022-08-19T00:31:48;29.13;;;4.07;;
64353;SDS011;50681;53.334;-6.536;2022-08-19T00:34:15;23.92;;;4.07;;
64353;SDS011;50681;53.334;-6.536;2022-08-19T00:36:40;32.13;;;5.47;;
64353;SDS011;50681;53.334;-6.536;2022-08-19T00:39:07;27.63;;;4.28;;
64353;SDS011;50681;53.334;-6.536;2022-08-19T00:41:33;34.83;;;4.60;;
64353;SDS011;50681;53.334;-6.536;2022-08-19T00:44:10;21.58;;;3.95;;
64353;SDS011;50681;53.334;-6.536;2022-08-19T00:46:41;30.92;;;4.32;;
64353;SDS011;50681;53.334;-6.536;2022-08-19T00:49:23;21.63;;;4.43;;
64353;SDS011;50681;53.334;-6.536;2022-08-19T00:51:51;28.60;;;4.30;;
64353;SDS011;50681;53.334;-6.536;2022-08-19T00:54:25;28.35;;;4.45;;
64353;SDS011;50681;53.334;-6.536;2022-08-19T00:56:52;26.77;;;4.13;;
64353;SDS011;50681;53.334;-6.536;2022-08-19T00:59:18;27.73;;;4.72;;
64353;SDS011;50681;53.334;-6.536;2022-08-19T01:01:45;28.38;;;4.53;;
64353;SDS011;50681;53.334;-6.536;2022-08-19T01:04:12;27.05;;;3.92;;
64353;SDS011;50681;53.334;-6.536;2022-08-19T01:06:38;25.92;;;5.35;;
64353;SDS011;50681;53.334;-6.536;2022-08-19T01:09:06;29.10;;;4.78;;
64353;SDS011;50681;53.334;-6.536;2022-08-19T01:14:00;30.33;;;4.13;;
64353;SDS011;50681;53.334;-6.536;2022-08-19T01:16:26;29.90;;;4.65;;
64353;SDS011;50681;53.334;-6.536;2022-08-19T01:18:54;39.33;;;5.22;;
64353;SDS011;50681;53.334;-6.536;2022-08-19T01:21:37;33.50;;;4.55;;
64353;SDS011;50681;53.334;-6.536;2022-08-19T01:24:09;31.27;;;4.88;;
64353;SDS011;50681;53.334;-6.536;2022-08-19T01:26:39;25.60;;;4.37;;
64353;SDS011;50681;53.334;-6.536;2022-08-19T01:29:08;30.50;;;4.55;;
64353;SDS011;50681;53.334;-6.536;2022-08-19T01:31:34;32.45;;;5.00;;
64353;SDS011;50681;53.334;-6.536;2022-08-19T01:34:01;31.38;;;4.93;;
64353;SDS011;50681;53.334;-6.536;2022-08-19T01:36:32;31.10;;;3.88;;
64353;SDS011;50681;53.334;-6.536;2022-08-19T01:39:03;29.60;;;4.47;;
64353;SDS011;50681;53.334;-6.536;2022-08-19T01:41:32;27.52;;;3.95;;
64353;SDS011;50681;53.334;-6.536;2022-08-19T01:43:57;26.97;;;4.03;;
64353;SDS011;50681;53.334;-6.536;2022-08-19T01:46:23;28.50;;;4.28;;
64353;SDS011;50681;53.334;-6.536;2022-08-19T01:48:49;33.42;;;4.88;;
64353;SDS011;50681;53.334;-6.536;2022-08-19T01:51:14;33.07;;;4.77;;
64353;SDS011;50681;53.334;-6.536;2022-08-19T01:53:40;33.33;;;4.57;;
64353;SDS011;50681;53.334;-6.536;2022-08-19T01:56:06;25.47;;;4.20;;
64353;SDS011;50681;53.334;-6.536;2022-08-19T01:58:42;30.83;;;4.53;;
64353;SDS011;50681;53.334;-6.536;2022-08-19T02:01:12;33.83;;;5.88;;
64353;SDS011;50681;53.334;-6.536;2022-08-19T02:03:38;43.35;;;5.38;;
64353;SDS011;50681;53.334;-6.536;2022-08-19T02:06:04;35.40;;;4.73;;
64353;SDS011;50681;53.334;-6.536;2022-08-19T02:08:31;27.95;;;4.70;;
64353;SDS011;50681;53.334;-6.536;2022-08-19T02:10:59;28.13;;;3.90;;
64353;SDS011;50681;53.334;-6.536;2022-08-19T02:13:25;28.30;;;4.63;;
64353;SDS011;50681;53.334;-6.536;2022-08-19T02:15:51;33.35;;;4.43;;
64353;SDS011;50681;53.334;-6.536;2022-08-19T02:18:16;26.83;;;4.67;;
64353;SDS011;50681;53.334;-6.536;2022-08-19T02:20:42;30.17;;;5.17;;
64353;SDS011;50681;53.334;-6.536;2022-08-19T02:23:10;22.92;;;3.92;;
64353;SDS011;50681;53.334;-6.536;2022-08-19T02:25:37;27.08;;;4.72;;
64353;SDS011;50681;53.334;-6.536;2022-08-19T02:28:02;24.55;;;4.38;;
64353;SDS011;50681;53.334;-6.536;2022-08-19T02:30:28;28.98;;;4.53;;
64353;SDS011;50681;53.334;-6.536;2022-08-19T02:32:54;29.95;;;4.07;;
64353;SDS011;50681;53.334;-6.536;2022-08-19T02:35:19;21.60;;;4.00;;
64353;SDS011;50681;53.334;-6.536;2022-08-19T02:37:46;38.05;;;5.60;;
64353;SDS011;50681;53.334;-6.536;2022-08-19T02:40:31;37.03;;;5.55;;
64353;SDS011;50681;53.334;-6.536;2022-08-19T02:43:00;35.22;;;4.22;;
64353;SDS011;50681;53.334;-6.536;2022-08-19T02:45:32;28.48;;;4.93;;
64353;SDS011;50681;53.334;-6.536;2022-08-19T02:48:01;35.83;;;4.80;;
64353;SDS011;50681;53.334;-6.536;2022-08-19T02:50:27;31.33;;;4.15;;
64353;SDS011;50681;53.334;-6.536;2022-08-19T02:52:52;30.63;;;4.28;;
64353;SDS011;50681;53.334;-6.536;2022-08-19T02:55:18;26.13;;;4.30;;
64353;SDS011;50681;53.334;-6.536;2022-08-19T02:57:43;44.47;;;4.70;;
64353;SDS011;50681;53.334;-6.536;2022-08-19T03:00:09;34.70;;;4.87;;
64353;SDS011;50681;53.334;-6.536;2022-08-19T03:02:38;27.70;;;4.40;;
64353;SDS011;50681;53.334;-6.536;2022-08-19T03:05:05;31.55;;;5.10;;
64353;SDS011;50681;53.334;-6.536;2022-08-19T03:07:31;25.95;;;4.78;;
64353;SDS011;50681;53.334;-6.536;2022-08-19T03:09:57;27.67;;;4.07;;
64353;SDS011;50681;53.334;-6.536;2022-08-19T03:12:22;38.57;;;4.83;;
64353;SDS011;50681;53.334;-6.536;2022-08-19T03:14:48;26.57;;;4.93;;
64353;SDS011;50681;53.334;-6.536;2022-08-19T03:17:13;29.77;;;4.37;;
64353;SDS011;50681;53.334;-6.536;2022-08-19T03:19:39;39.13;;;5.37;;
64353;SDS011;50681;53.334;-6.536;2022-08-19T03:22:04;24.17;;;3.93;;
64353;SDS011;50681;53.334;-6.536;2022-08-19T03:24:30;30.40;;;4.23;;
64353;SDS011;50681;53.334;-6.536;2022-08-19T03:26:56;26.67;;;4.50;;
64353;SDS011;50681;53.334;-6.536;2022-08-19T03:29:22;24.30;;;4.22;;
64353;SDS011;50681;53.334;-6.536;2022-08-19T03:31:49;34.85;;;4.32;;
64353;SDS011;50681;53.334;-6.536;2022-08-19T03:34:21;27.33;;;4.88;;
64353;SDS011;50681;53.334;-6.536;2022-08-19T03:36:53;25.35;;;3.78;;
64353;SDS011;50681;53.334;-6.536;2022-08-19T03:39:21;27.27;;;4.45;;
64353;SDS011;50681;53.334;-6.536;2022-08-19T03:44:16;33.13;;;4.18;;
64353;SDS011;50681;53.334;-6.536;2022-08-19T03:46:46;22.77;;;4.00;;
64353;SDS011;50681;53.334;-6.536;2022-08-19T03:49:17;18.20;;;3.75;;
64353;SDS011;50681;53.334;-6.536;2022-08-19T03:51:44;26.88;;;4.10;;
64353;SDS011;50681;53.334;-6.536;2022-08-19T03:56:38;22.67;;;4.03;;
64353;SDS011;50681;53.334;-6.536;2022-08-19T03:59:07;23.15;;;4.13;;
64353;SDS011;50681;53.334;-6.536;2022-08-19T04:01:36;18.75;;;3.50;;
64353;SDS011;50681;53.334;-6.536;2022-08-19T04:04:01;30.45;;;5.05;;
64353;SDS011;50681;53.334;-6.536;2022-08-19T04:06:28;20.48;;;3.20;;
64353;SDS011;50681;53.334;-6.536;2022-08-19T04:08:56;15.05;;;3.55;;
64353;SDS011;50681;53.334;-6.536;2022-08-19T04:11:25;23.90;;;4.53;;
64353;SDS011;50681;53.334;-6.536;2022-08-19T04:13:52;25.38;;;3.88;;
64353;SDS011;50681;53.334;-6.536;2022-08-19T04:18:45;34.65;;;4.30;;
64353;SDS011;50681;53.334;-6.536;2022-08-19T04:21:15;26.88;;;4.07;;
64353;SDS011;50681;53.334;-6.536;2022-08-19T04:23:45;17.42;;;4.82;;
64353;SDS011;50681;53.334;-6.536;2022-08-19T04:26:14;30.50;;;4.07;;
64353;SDS011;50681;53.334;-6.536;2022-08-19T04:28:42;23.08;;;2.95;;
64353;SDS011;50681;53.334;-6.536;2022-08-19T04:31:12;24.67;;;3.60;;
64353;SDS011;50681;53.334;-6.536;2022-08-19T04:33:40;21.95;;;3.75;;
64353;SDS011;50681;53.334;-6.536;2022-08-19T04:36:06;35.70;;;4.43;;
64353;SDS011;50681;53.334;-6.536;2022-08-19T04:38:32;19.00;;;3.38;;
64353;SDS011;50681;53.334;-6.536;2022-08-19T04:40:57;27.47;;;3.47;;
64353;SDS011;50681;53.334;-6.536;2022-08-19T04:43:42;26.13;;;4.35;;
64353;SDS011;50681;53.334;-6.536;2022-08-19T04:46:12;23.77;;;3.72;;
64353;SDS011;50681;53.334;-6.536;2022-08-19T04:48:38;23.20;;;3.40;;
64353;SDS011;50681;53.334;-6.536;2022-08-19T04:51:08;18.58;;;3.38;;
64353;SDS011;50681;53.334;-6.536;2022-08-19T04:53:36;22.45;;;3.20;;
64353;SDS011;50681;53.334;-6.536;2022-08-19T04:56:10;26.48;;;3.35;;
64353;SDS011;50681;53.334;-6.536;2022-08-19T04:58:38;21.65;;;3.92;;
64353;SDS011;50681;53.334;-6.536;2022-08-19T05:01:06;22.85;;;3.42;;
64353;SDS011;50681;53.334;-6.536;2022-08-19T05:03:32;25.77;;;3.30;;
64353;SDS011;50681;53.334;-6.536;2022-08-19T05:08:29;21.30;;;3.65;;
64353;SDS011;50681;53.334;-6.536;2022-08-19T05:10:55;27.05;;;3.45;;
64353;SDS011;50681;53.334;-6.536;2022-08-19T05:13:22;19.40;;;3.50;;
64353;SDS011;50681;53.334;-6.536;2022-08-19T05:15:55;20.15;;;3.38;;
64353;SDS011;50681;53.334;-6.536;2022-08-19T05:18:21;21.02;;;3.20;;
64353;SDS011;50681;53.334;-6.536;2022-08-19T05:21:13;20.08;;;3.03;;
64353;SDS011;50681;53.334;-6.536;2022-08-19T05:23:58;19.73;;;4.28;;
64353;SDS011;50681;53.334;-6.536;2022-08-19T05:26:24;24.33;;;3.30;;
64353;SDS011;50681;53.334;-6.536;2022-08-19T05:28:53;21.35;;;3.30;;
64353;SDS011;50681;53.334;-6.536;2022-08-19T05:31:19;20.98;;;3.53;;
64353;SDS011;50681;53.334;-6.536;2022-08-19T05:33:45;15.77;;;2.92;;
64353;SDS011;50681;53.334;-6.536;2022-08-19T05:36:10;18.33;;;3.53;;
64353;SDS011;50681;53.334;-6.536;2022-08-19T05:38:36;20.30;;;3.27;;
64353;SDS011;50681;53.334;-6.536;2022-08-19T05:41:13;30.23;;;3.30;;
64353;SDS011;50681;53.334;-6.536;2022-08-19T05:43:40;18.85;;;3.55;;
64353;SDS011;50681;53.334;-6.536;2022-08-19T05:46:06;20.63;;;2.97;;
64353;SDS011;50681;53.334;-6.536;2022-08-19T05:48:33;21.55;;;3.28;;
64353;SDS011;50681;53.334;-6.536;2022-08-19T05:51:06;22.58;;;3.38;;
64353;SDS011;50681;53.334;-6.536;2022-08-19T05:53:33;16.17;;;2.30;;
64353;SDS011;50681;53.334;-6.536;2022-08-19T05:56:05;13.63;;;2.50;;
64353;SDS011;50681;53.334;-6.536;2022-08-19T05:58:34;18.33;;;2.90;;
64353;SDS011;50681;53.334;-6.536;2022-08-19T06:01:00;15.75;;;2.92;;
64353;SDS011;50681;53.334;-6.536;2022-08-19T06:03:30;13.13;;;2.55;;
64353;SDS011;50681;53.334;-6.536;2022-08-19T06:05:59;9.02;;;2.25;;
64353;SDS011;50681;53.334;-6.536;2022-08-19T06:08:25;13.77;;;2.50;;
64353;SDS011;50681;53.334;-6.536;2022-08-19T06:10:51;16.83;;;2.58;;
64353;SDS011;50681;53.334;-6.536;2022-08-19T06:13:17;13.80;;;2.72;;
64353;SDS011;50681;53.334;-6.536;2022-08-19T06:15:44;12.45;;;2.33;;
64353;SDS011;50681;53.334;-6.536;2022-08-19T06:18:12;16.25;;;2.67;;
64353;SDS011;50681;53.334;-6.536;2022-08-19T06:20:38;18.50;;;2.35;;
64353;SDS011;50681;53.334;-6.536;2022-08-19T06:23:04;19.25;;;2.55;;
64353;SDS011;50681;53.334;-6.536;2022-08-19T06:25:29;13.30;;;2.63;;
64353;SDS011;50681;53.334;-6.536;2022-08-19T06:27:55;14.00;;;2.87;;
64353;SDS011;50681;53.334;-6.536;2022-08-19T06:30:20;13.80;;;2.57;;
64353;SDS011;50681;53.334;-6.536;2022-08-19T06:32:46;14.02;;;2.50;;
64353;SDS011;50681;53.334;-6.536;2022-08-19T06:35:12;17.13;;;2.47;;
64353;SDS011;50681;53.334;-6.536;2022-08-19T06:37:39;15.70;;;2.53;;
64353;SDS011;50681;53.334;-6.536;2022-08-19T06:40:05;19.93;;;2.90;;
64353;SDS011;50681;53.334;-6.536;2022-08-19T06:42:33;17.40;;;3.28;;
64353;SDS011;50681;53.334;-6.536;2022-08-19T06:44:59;16.63;;;3.30;;
64353;SDS011;50681;53.334;-6.536;2022-08-19T06:47:29;17.25;;;3.60;;
64353;SDS011;50681;53.334;-6.536;2022-08-19T06:49:58;12.57;;;2.83;;
64353;SDS011;50681;53.334;-6.536;2022-08-19T06:52:29;12.25;;;2.90;;
64353;SDS011;50681;53.334;-6.536;2022-08-19T06:54:57;15.65;;;2.35;;
64353;SDS011;50681;53.334;-6.536;2022-08-19T06:57:23;12.07;;;2.83;;
64353;SDS011;50681;53.334;-6.536;2022-08-19T06:59:49;10.38;;;2.67;;
64353;SDS011;50681;53.334;-6.536;2022-08-19T07:02:15;22.33;;;2.83;;
64353;SDS011;50681;53.334;-6.536;2022-08-19T07:04:41;16.33;;;2.70;;
64353;SDS011;50681;53.334;-6.536;2022-08-19T07:07:08;12.83;;;2.60;;
64353;SDS011;50681;53.334;-6.536;2022-08-19T07:09:37;12.18;;;2.88;;
64353;SDS011;50681;53.334;-6.536;2022-08-19T07:12:05;12.57;;;2.20;;
64353;SDS011;50681;53.334;-6.536;2022-08-19T07:14:32;12.50;;;2.22;;
64353;SDS011;50681;53.334;-6.536;2022-08-19T07:17:01;11.55;;;2.60;;
64353;SDS011;50681;53.334;-6.536;2022-08-19T07:19:28;10.75;;;2.17;;
64353;SDS011;50681;53.334;-6.536;2022-08-19T07:21:54;13.63;;;2.17;;
64353;SDS011;50681;53.334;-6.536;2022-08-19T07:24:21;10.85;;;2.35;;
64353;SDS011;50681;53.334;-6.536;2022-08-19T07:26:49;13.20;;;2.25;;
64353;SDS011;50681;53.334;-6.536;2022-08-19T07:29:16;9.65;;;2.00;;
64353;SDS011;50681;53.334;-6.536;2022-08-19T07:31:42;7.90;;;2.37;;
64353;SDS011;50681;53.334;-6.536;2022-08-19T07:34:09;17.45;;;2.58;;
64353;SDS011;50681;53.334;-6.536;2022-08-19T07:36:37;8.90;;;1.95;;
64353;SDS011;50681;53.334;-6.536;2022-08-19T07:39:10;13.23;;;2.15;;
64353;SDS011;50681;53.334;-6.536;2022-08-19T07:41:38;8.40;;;1.92;;
64353;SDS011;50681;53.334;-6.536;2022-08-19T07:44:04;10.07;;;2.00;;
64353;SDS011;50681;53.334;-6.536;2022-08-19T07:46:33;16.45;;;3.00;;
64353;SDS011;50681;53.334;-6.536;2022-08-19T07:49:00;10.82;;;2.00;;
64353;SDS011;50681;53.334;-6.536;2022-08-19T07:51:27;15.10;;;2.35;;
64353;SDS011;50681;53.334;-6.536;2022-08-19T07:53:53;25.00;;;1.92;;
64353;SDS011;50681;53.334;-6.536;2022-08-19T07:56:20;12.20;;;2.83;;
64353;SDS011;50681;53.334;-6.536;2022-08-19T07:58:47;9.50;;;2.05;;
64353;SDS011;50681;53.334;-6.536;2022-08-19T08:01:15;21.13;;;2.35;;
64353;SDS011;50681;53.334;-6.536;2022-08-19T08:03:42;13.85;;;2.22;;
64353;SDS011;50681;53.334;-6.536;2022-08-19T08:06:27;15.10;;;2.30;;
64353;SDS011;50681;53.334;-6.536;2022-08-19T08:09:13;17.45;;;2.33;;
64353;SDS011;50681;53.334;-6.536;2022-08-19T08:11:57;9.23;;;2.17;;
64353;SDS011;50681;53.334;-6.536;2022-08-19T08:14:37;14.20;;;2.17;;
64353;SDS011;50681;53.334;-6.536;2022-08-19T08:17:06;16.77;;;2.63;;
64353;SDS011;50681;53.334;-6.536;2022-08-19T08:19:31;14.47;;;2.43;;
64353;SDS011;50681;53.334;-6.536;2022-08-19T08:21:58;10.80;;;1.95;;
64353;SDS011;50681;53.334;-6.536;2022-08-19T08:24:25;16.90;;;2.60;;
64353;SDS011;50681;53.334;-6.536;2022-08-19T08:26:52;12.35;;;2.20;;
64353;SDS011;50681;53.334;-6.536;2022-08-19T08:29:18;10.27;;;2.00;;
64353;SDS011;50681;53.334;-6.536;2022-08-19T08:34:12;7.40;;;1.98;;
64353;SDS011;50681;53.334;-6.536;2022-08-19T08:36:42;12.73;;;2.33;;
64353;SDS011;50681;53.334;-6.536;2022-08-19T08:39:12;8.05;;;1.98;;
64353;SDS011;50681;53.334;-6.536;2022-08-19T08:42:07;4.50;;;1.23;;
64353;SDS011;50681;53.334;-6.536;2022-08-19T08:47:02;8.35;;;1.50;;
64353;SDS011;50681;53.334;-6.536;2022-08-19T08:52:25;8.57;;;1.60;;
64353;SDS011;50681;53.334;-6.536;2022-08-19T08:54:54;10.18;;;2.10;;
64353;SDS011;50681;53.334;-6.536;2022-08-19T08:57:34;7.53;;;1.60;;
64353;SDS011;50681;53.334;-6.536;2022-08-19T09:00:05;6.65;;;1.38;;
64353;SDS011;50681;53.334;-6.536;2022-08-19T09:02:37;11.95;;;1.85;;
64353;SDS011;50681;53.334;-6.536;2022-08-19T09:05:03;13.77;;;1.73;;
64353;SDS011;50681;53.334;-6.536;2022-08-19T09:07:38;11.57;;;1.73;;
64353;SDS011;50681;53.334;-6.536;2022-08-19T09:15:55;14.90;;;2.47;;
64353;SDS011;50681;53.334;-6.536;2022-08-19T09:18:26;12.80;;;1.77;;
64353;SDS011;50681;53.334;-6.536;2022-08-19T09:21:07;10.57;;;1.48;;
64353;SDS011;50681;53.334;-6.536;2022-08-19T09:23:34;10.30;;;1.98;;
64353;SDS011;50681;53.334;-6.536;2022-08-19T09:26:00;10.45;;;1.98;;
64353;SDS011;50681;53.334;-6.536;2022-08-19T09:28:26;6.07;;;1.57;;
64353;SDS011;50681;53.334;-6.536;2022-08-19T09:33:17;7.97;;;1.65;;
64353;SDS011;50681;53.334;-6.536;2022-08-19T09:35:43;5.07;;;1.43;;
64353;SDS011;50681;53.334;-6.536;2022-08-19T09:38:08;16.03;;;2.20;;
64353;SDS011;50681;53.334;-6.536;2022-08-19T09:40:34;17.17;;;2.17;;
64353;SDS011;50681;53.334;-6.536;2022-08-19T09:43:00;13.70;;;2.22;;
64353;SDS011;50681;53.334;-6.536;2022-08-19T09:45:27;10.25;;;1.65;;
64353;SDS011;50681;53.334;-6.536;2022-08-19T09:47:53;11.20;;;2.08;;
64353;SDS011;50681;53.334;-6.536;2022-08-19T09:50:19;10.70;;;1.88;;
64353;SDS011;50681;53.334;-6.536;2022-08-19T09:52:45;7.72;;;1.42;;
64353;SDS011;50681;53.334;-6.536;2022-08-19T09:55:11;12.18;;;1.75;;
64353;SDS011;50681;53.334;-6.536;2022-08-19T09:57:37;9.52;;;2.20;;
64353;SDS011;50681;53.334;-6.536;2022-08-19T10:02:29;13.48;;;1.85;;
64353;SDS011;50681;53.334;-6.536;2022-08-19T10:04:55;6.93;;;1.90;;
64353;SDS011;50681;53.334;-6.536;2022-08-19T10:07:39;13.75;;;1.95;;
64353;SDS011;50681;53.334;-6.536;2022-08-19T10:10:05;18.00;;;2.10;;
64353;SDS011;50681;53.334;-6.536;2022-08-19T10:12:32;10.60;;;2.03;;
64353;SDS011;50681;53.334;-6.536;2022-08-19T10:14:58;8.27;;;1.73;;
64353;SDS011;50681;53.334;-6.536;2022-08-19T10:17:24;8.00;;;1.60;;
64353;SDS011;50681;53.334;-6.536;2022-08-19T10:19:50;9.90;;;1.88;;
64353;SDS011;50681;53.334;-6.536;2022-08-19T10:22:16;6.75;;;1.67;;
64353;SDS011;50681;53.334;-6.536;2022-08-19T10:24:43;5.47;;;1.25;;
64353;SDS011;50681;53.334;-6.536;2022-08-19T10:27:10;11.50;;;2.38;;
64353;SDS011;50681;53.334;-6.536;2022-08-19T10:29:38;6.95;;;1.42;;
64353;SDS011;50681;53.334;-6.536;2022-08-19T10:32:04;14.13;;;1.73;;
64353;SDS011;50681;53.334;-6.536;2022-08-19T10:34:32;11.80;;;2.10;;
64353;SDS011;50681;53.334;-6.536;2022-08-19T10:36:58;11.27;;;2.38;;
64353;SDS011;50681;53.334;-6.536;2022-08-19T10:39:25;11.13;;;2.55;;
64353;SDS011;50681;53.334;-6.536;2022-08-19T10:41:54;15.70;;;2.92;;
64353;SDS011;50681;53.334;-6.536;2022-08-19T10:44:20;8.23;;;2.05;;
64353;SDS011;50681;53.334;-6.536;2022-08-19T10:46:48;16.08;;;2.28;;
64353;SDS011;50681;53.334;-6.536;2022-08-19T10:49:13;10.98;;;2.40;;
64353;SDS011;50681;53.334;-6.536;2022-08-19T10:51:39;10.57;;;2.08;;
64353;SDS011;50681;53.334;-6.536;2022-08-19T10:54:24;12.27;;;2.40;;
64353;SDS011;50681;53.334;-6.536;2022-08-19T10:57:09;11.85;;;2.08;;
64353;SDS011;50681;53.334;-6.536;2022-08-19T10:59:36;10.00;;;2.00;;
64353;SDS011;50681;53.334;-6.536;2022-08-19T11:02:03;9.52;;;2.75;;
64353;SDS011;50681;53.334;-6.536;2022-08-19T11:04:31;12.88;;;2.70;;
64353;SDS011;50681;53.334;-6.536;2022-08-19T11:09:23;11.80;;;2.70;;
64353;SDS011;50681;53.334;-6.536;2022-08-19T11:11:50;12.57;;;2.20;;
64353;SDS011;50681;53.334;-6.536;2022-08-19T11:14:18;13.55;;;2.63;;
64353;SDS011;50681;53.334;-6.536;2022-08-19T11:16:45;10.68;;;2.20;;
64353;SDS011;50681;53.334;-6.536;2022-08-19T11:19:12;11.98;;;2.50;;
64353;SDS011;50681;53.334;-6.536;2022-08-19T11:21:42;10.85;;;2.38;;
64353;SDS011;50681;53.334;-6.536;2022-08-19T11:24:18;12.65;;;2.90;;
64353;SDS011;50681;53.334;-6.536;2022-08-19T11:29:14;10.80;;;2.25;;
64353;SDS011;50681;53.334;-6.536;2022-08-19T11:31:41;11.27;;;2.10;;
64353;SDS011;50681;53.334;-6.536;2022-08-19T11:34:11;12.88;;;2.10;;
64353;SDS011;50681;53.334;-6.536;2022-08-19T11:36:42;12.07;;;2.30;;
64353;SDS011;50681;53.334;-6.536;2022-08-19T11:39:10;15.02;;;2.60;;
64353;SDS011;50681;53.334;-6.536;2022-08-19T11:41:37;11.93;;;2.42;;
64353;SDS011;50681;53.334;-6.536;2022-08-19T11:44:02;10.20;;;2.40;;
64353;SDS011;50681;53.334;-6.536;2022-08-19T11:46:29;12.65;;;2.63;;
64353;SDS011;50681;53.334;-6.536;2022-08-19T11:48:56;13.50;;;2.65;;
64353;SDS011;50681;53.334;-6.536;2022-08-19T11:51:24;14.77;;;2.78;;
64353;SDS011;50681;53.334;-6.536;2022-08-19T11:53:51;14.60;;;2.58;;
64353;SDS011;50681;53.334;-6.536;2022-08-19T11:56:18;13.23;;;2.75;;
64353;SDS011;50681;53.334;-6.536;2022-08-19T12:01:11;12.95;;;2.33;;
64353;SDS011;50681;53.334;-6.536;2022-08-19T12:03:40;15.15;;;3.22;;
64353;SDS011;50681;53.334;-6.536;2022-08-19T12:06:11;9.93;;;2.42;;
64353;SDS011;50681;53.334;-6.536;2022-08-19T12:08:39;16.35;;;3.05;;
64353;SDS011;50681;53.334;-6.536;2022-08-19T12:11:06;15.93;;;2.80;;
64353;SDS011;50681;53.334;-6.536;2022-08-19T12:13:35;11.05;;;2.42;;
64353;SDS011;50681;53.334;-6.536;2022-08-19T12:16:01;14.88;;;2.97;;
64353;SDS011;50681;53.334;-6.536;2022-08-19T12:18:52;12.48;;;2.35;;
64353;SDS011;50681;53.334;-6.536;2022-08-19T12:21:20;12.00;;;3.17;;
64353;SDS011;50681;53.334;-6.536;2022-08-19T12:23:52;11.60;;;2.78;;
64353;SDS011;50681;53.334;-6.536;2022-08-19T12:26:17;12.70;;;2.47;;
64353;SDS011;50681;53.334;-6.536;2022-08-19T12:28:43;12.90;;;2.92;;
64353;SDS011;50681;53.334;-6.536;2022-08-19T12:31:09;10.25;;;2.50;;
64353;SDS011;50681;53.334;-6.536;2022-08-19T12:33:37;12.23;;;2.90;;
64353;SDS011;50681;53.334;-6.536;2022-08-19T12:36:04;11.85;;;2.85;;
64353;SDS011;50681;53.334;-6.536;2022-08-19T12:38:32;23.40;;;3.17;;
64353;SDS011;50681;53.334;-6.536;2022-08-19T12:40:59;15.57;;;3.38;;
64353;SDS011;50681;53.334;-6.536;2022-08-19T12:43:25;10.98;;;3.08;;
64353;SDS011;50681;53.334;-6.536;2022-08-19T12:45:51;11.93;;;3.03;;
64353;SDS011;50681;53.334;-6.536;2022-08-19T12:48:16;17.57;;;3.47;;
64353;SDS011;50681;53.334;-6.536;2022-08-19T12:50:42;11.43;;;2.67;;
64353;SDS011;50681;53.334;-6.536;2022-08-19T12:53:12;11.30;;;3.20;;
64353;SDS011;50681;53.334;-6.536;2022-08-19T12:55:38;13.65;;;2.67;;
64353;SDS011;50681;53.334;-6.536;2022-08-19T12:58:04;13.35;;;2.58;;
64353;SDS011;50681;53.334;-6.536;2022-08-19T13:00:29;12.57;;;3.20;;
64353;SDS011;50681;53.334;-6.536;2022-08-19T13:02:57;10.57;;;3.05;;
64353;SDS011;50681;53.334;-6.536;2022-08-19T13:05:24;13.45;;;3.08;;
64353;SDS011;50681;53.334;-6.536;2022-08-19T13:07:52;10.65;;;2.90;;
64353;SDS011;50681;53.334;-6.536;2022-08-19T13:10:23;13.13;;;3.17;;
64353;SDS011;50681;53.334;-6.536;2022-08-19T13:12:50;11.48;;;2.88;;
64353;SDS011;50681;53.334;-6.536;2022-08-19T13:15:18;10.13;;;3.10;;
64353;SDS011;50681;53.334;-6.536;2022-08-19T13:17:46;9.95;;;2.67;;
64353;SDS011;50681;53.334;-6.536;2022-08-19T13:20:13;17.25;;;3.05;;
64353;SDS011;50681;53.334;-6.536;2022-08-19T13:22:40;10.45;;;2.30;;
64353;SDS011;50681;53.334;-6.536;2022-08-19T13:25:06;7.55;;;2.42;;
64353;SDS011;50681;53.334;-6.536;2022-08-19T13:27:32;8.48;;;2.58;;
64353;SDS011;50681;53.334;-6.536;2022-08-19T13:29:58;13.85;;;2.75;;
64353;SDS011;50681;53.334;-6.536;2022-08-19T13:32:47;12.10;;;1.95;;
64353;SDS011;50681;53.334;-6.536;2022-08-19T13:35:32;7.30;;;2.80;;
64353;SDS011;50681;53.334;-6.536;2022-08-19T13:37:57;7.45;;;2.30;;
64353;SDS011;50681;53.334;-6.536;2022-08-19T13:40:23;11.67;;;2.70;;
64353;SDS011;50681;53.334;-6.536;2022-08-19T13:42:52;6.78;;;1.95;;
64353;SDS011;50681;53.334;-6.536;2022-08-19T13:45:19;8.82;;;2.45;;
64353;SDS011;50681;53.334;-6.536;2022-08-19T13:47:47;9.48;;;2.40;;
64353;SDS011;50681;53.334;-6.536;2022-08-19T13:50:16;8.30;;;2.53;;
64353;SDS011;50681;53.334;-6.536;2022-08-19T13:52:43;10.15;;;2.22;;
64353;SDS011;50681;53.334;-6.536;2022-08-19T13:55:10;7.70;;;2.08;;
64353;SDS011;50681;53.334;-6.536;2022-08-19T13:57:39;6.18;;;1.83;;
64353;SDS011;50681;53.334;-6.536;2022-08-19T14:00:06;12.00;;;2.00;;
64353;SDS011;50681;53.334;-6.536;2022-08-19T14:02:35;8.85;;;1.50;;
64353;SDS011;50681;53.334;-6.536;2022-08-19T14:05:02;9.75;;;2.08;;
64353;SDS011;50681;53.334;-6.536;2022-08-19T14:07:29;5.80;;;1.90;;
64353;SDS011;50681;53.334;-6.536;2022-08-19T14:09:54;10.25;;;1.70;;
64353;SDS011;50681;53.334;-6.536;2022-08-19T14:12:20;6.72;;;1.80;;
64353;SDS011;50681;53.334;-6.536;2022-08-19T14:14:46;4.68;;;1.30;;
64353;SDS011;50681;53.334;-6.536;2022-08-19T14:17:13;6.15;;;1.90;;
64353;SDS011;50681;53.334;-6.536;2022-08-19T14:19:39;3.63;;;1.48;;
64353;SDS011;50681;53.334;-6.536;2022-08-19T14:22:05;7.18;;;1.40;;
64353;SDS011;50681;53.334;-6.536;2022-08-19T14:24:31;9.77;;;1.75;;
64353;SDS011;50681;53.334;-6.536;2022-08-19T14:26:57;5.10;;;1.80;;
64353;SDS011;50681;53.334;-6.536;2022-08-19T14:29:23;12.93;;;1.70;;
64353;SDS011;50681;53.334;-6.536;2022-08-19T14:31:49;9.38;;;2.33;;
64353;SDS011;50681;53.334;-6.536;2022-08-19T14:34:14;11.23;;;1.92;;
64353;SDS011;50681;53.334;-6.536;2022-08-19T14:36:40;6.67;;;1.77;;
64353;SDS011;50681;53.334;-6.536;2022-08-19T14:39:06;7.25;;;1.40;;
64353;SDS011;50681;53.334;-6.536;2022-08-19T14:41:33;12.50;;;2.20;;
64353;SDS011;50681;53.334;-6.536;2022-08-19T14:43:58;10.20;;;2.13;;
64353;SDS011;50681;53.334;-6.536;2022-08-19T14:46:26;16.42;;;2.05;;
64353;SDS011;50681;53.334;-6.536;2022-08-19T14:48:53;15.15;;;2.42;;
64353;SDS011;50681;53.334;-6.536;2022-08-19T14:51:23;12.00;;;2.28;;
64353;SDS011;50681;53.334;-6.536;2022-08-19T14:53:50;10.35;;;1.80;;
64353;SDS011;50681;53.334;-6.536;2022-08-19T14:56:17;9.70;;;2.10;;
64353;SDS011;50681;53.334;-6.536;2022-08-19T14:58:46;10.73;;;2.00;;
64353;SDS011;50681;53.334;-6.536;2022-08-19T15:01:11;5.00;;;1.70;;
64353;SDS011;50681;53.334;-6.536;2022-08-19T15:03:38;8.45;;;1.83;;
64353;SDS011;50681;53.334;-6.536;2022-08-19T15:06:06;13.18;;;2.05;;
64353;SDS011;50681;53.334;-6.536;2022-08-19T15:08:32;7.07;;;1.80;;